Time;durP1;ratioP1;P1;durP2;ratioP2;P2;SDS_P1;SDS_P2;PMS_P1;PMS_P2;Temp;Humidity;BMP_temperature;BMP_pressure;BME280_temperature;BME280_humidity;BME280_pressure;Samples;Min_cycle;Max_cycle;Signal;HPM_P1;HPM_P2
2021/05/26 00:00:28;;;;;;;;;;;;;;;3.99;84.19;96532.59;3599481;39;19969;-53
2021/05/26 00:02:55;;;;;;;;;;;;;;;3.92;83.92;96539.59;3597259;39;19944;-53
2021/05/26 00:05:23;;;;;;;;;;;;;;;3.93;85.82;96533.38;3601116;39;20286;-54
2021/05/26 00:07:50;;;;;;;;;;;;;;;3.89;85.43;96539.19;3592608;39;19944;-53
2021/05/26 00:10:18;;;;;;;;;;;;;;;3.80;84.98;96541.16;3602439;39;19943;-54
2021/05/26 00:12:45;;;;;;;;;;;;;;;3.77;85.38;96541.56;3602614;39;19935;-52
2021/05/26 00:15:13;;;;;;;;;;;;;;;3.75;85.13;96554.03;3602601;39;19936;-53
2021/05/26 00:17:41;;;;;;;;;;;;;;;3.74;85.55;96557.63;3582193;39;20289;-53
2021/05/26 00:20:09;;;;;;;;;;;;;;;3.75;85.25;96559.25;3593134;39;19943;-52
2021/05/26 00:22:36;;;;;;;;;;;;;;;3.72;85.21;96567.44;3599849;39;19942;-54
2021/05/26 00:25:04;;;;;;;;;;;;;;;3.71;84.99;96578.88;3582429;39;19950;-54
2021/05/26 00:27:32;;;;;;;;;;;;;;;3.68;85.42;96564.44;3601590;39;19944;-55
2021/05/26 00:30:00;;;;;;;;;;;;;;;3.63;86.07;96559.78;3591832;39;19950;-54
2021/05/26 00:32:27;;;;;;;;;;;;;;;3.59;85.37;96576.84;3583346;39;20300;-53
2021/05/26 00:34:55;;;;;;;;;;;;;;;3.53;85.90;96562.78;3592338;39;19936;-53
2021/05/26 00:37:22;;;;;;;;;;;;;;;3.52;86.03;96568.16;3582016;39;19942;-53
2021/05/26 00:39:51;;;;;;;;;;;;;;;3.49;86.29;96552.91;3599516;39;19942;-53
2021/05/26 00:42:20;;;;;;;;;;;;;;;3.43;86.02;96556.28;3597299;39;19936;-55
2021/05/26 00:44:51;;;;;;;;;;;;;;;3.39;85.93;96561.88;3603195;39;19939;-53
2021/05/26 00:47:54;;;;;;;;;;;;;;;3.38;86.18;96560.28;3601935;39;19944;-54
2021/05/26 00:50:23;;;;;;;;;;;;;;;3.38;85.94;96555.06;3547189;40;19938;-54
2021/05/26 00:52:58;;;;;;;;;;;;;;;3.39;86.32;96551.47;3585866;39;19946;-53
2021/05/26 00:55:26;;;;;;;;;;;;;;;3.31;85.43;96559.44;3604132;39;19936;-53
2021/05/26 00:57:55;;;;;;;;;;;;;;;3.28;86.44;96544.19;3599223;39;19943;-53
2021/05/26 01:00:24;;;;;;;;;;;;;;;3.27;86.29;96549.59;3591332;39;19942;-54
2021/05/26 01:03:12;;;;;;;;;;;;;;;3.27;86.48;96542.56;3591139;39;19941;-54
2021/05/26 01:05:41;;;;;;;;;;;;;;;3.26;85.96;96541.00;3588916;39;19936;-54
2021/05/26 01:08:10;;;;;;;;;;;;;;;3.25;85.59;96543.78;3591242;39;19944;-53
2021/05/26 01:10:38;;;;;;;;;;;;;;;3.22;85.33;96550.97;3598391;39;20776;-54
2021/05/26 01:13:13;;;;;;;;;;;;;;;3.16;85.08;96545.72;3591867;39;19948;-53
2021/05/26 01:15:42;;;;;;;;;;;;;;;3.12;85.31;96547.91;3598068;39;20217;-54
2021/05/26 01:18:19;;;;;;;;;;;;;;;3.09;85.46;96545.69;3589454;39;19944;-53
2021/05/26 01:20:47;;;;;;;;;;;;;;;3.05;86.04;96550.50;3590343;39;19966;-52
2021/05/26 01:23:17;;;;;;;;;;;;;;;3.01;85.78;96543.25;3594713;39;19944;-52
2021/05/26 01:25:51;;;;;;;;;;;;;;;2.96;86.31;96545.63;3593704;39;19946;-53
2021/05/26 01:28:19;;;;;;;;;;;;;;;2.91;86.65;96549.63;3593883;39;19936;-53
2021/05/26 01:30:47;;;;;;;;;;;;;;;2.91;86.36;96549.63;3593240;39;20305;-54
2021/05/26 01:33:15;;;;;;;;;;;;;;;2.91;86.61;96544.41;3600639;39;19990;-54
2021/05/26 01:35:45;;;;;;;;;;;;;;;2.88;86.21;96550.00;3582389;39;19950;-54
2021/05/26 01:38:14;;;;;;;;;;;;;;;2.81;86.51;96540.50;3594296;39;19942;-54
2021/05/26 01:40:42;;;;;;;;;;;;;;;2.86;86.28;96551.19;3596464;39;19964;-54
2021/05/26 01:43:10;;;;;;;;;;;;;;;2.82;86.64;96552.56;3583211;39;19942;-52
2021/05/26 01:45:37;;;;;;;;;;;;;;;2.85;87.43;96555.56;3594188;39;19948;-53
2021/05/26 01:48:06;;;;;;;;;;;;;;;2.88;87.90;96557.03;3593055;39;19944;-53
2021/05/26 01:50:34;;;;;;;;;;;;;;;2.91;88.38;96564.44;3594193;39;19942;-53
2021/05/26 01:53:05;;;;;;;;;;;;;;;2.91;87.72;96552.22;3593550;39;19962;-54
2021/05/26 01:55:35;;;;;;;;;;;;;;;2.90;86.84;96557.59;3594265;39;19940;-54
2021/05/26 01:58:04;;;;;;;;;;;;;;;2.86;86.64;96562.41;3592907;39;20302;-53
2021/05/26 02:00:39;;;;;;;;;;;;;;;2.86;86.35;96559.00;3602198;39;19948;-53
2021/05/26 02:03:08;;;;;;;;;;;;;;;2.84;86.04;96553.97;3591509;39;20592;-54
2021/05/26 02:05:36;;;;;;;;;;;;;;;2.81;85.91;96556.16;3594210;39;19947;-53
2021/05/26 02:08:06;;;;;;;;;;;;;;;2.77;85.49;96553.13;3580389;39;20164;-53
2021/05/26 02:13:20;;;;;;;;;;;;;;;2.67;85.75;96557.88;3594844;39;19943;-54
2021/05/26 02:15:58;;;;;;;;;;;;;;;2.61;86.30;96559.44;3594425;39;19950;-53
2021/05/26 02:18:28;;;;;;;;;;;;;;;2.60;86.86;96561.22;3594163;39;19945;-54
2021/05/26 02:20:55;;;;;;;;;;;;;;;2.58;87.06;96565.00;3594792;39;19944;-54
2021/05/26 02:23:23;;;;;;;;;;;;;;;2.56;86.79;96552.19;3596211;39;20266;-54
2021/05/26 02:25:52;;;;;;;;;;;;;;;2.58;86.89;96554.59;3592682;39;19951;-53
2021/05/26 02:28:19;;;;;;;;;;;;;;;2.59;86.87;96553.59;3593306;39;19950;-54
2021/05/26 02:30:48;;;;;;;;;;;;;;;2.54;86.62;96554.16;3593089;39;19950;-53
2021/05/26 02:33:16;;;;;;;;;;;;;;;2.44;85.68;96556.28;3593032;39;19951;-53
2021/05/26 02:35:47;;;;;;;;;;;;;;;2.26;86.31;96565.34;3592710;39;19936;-52
2021/05/26 02:38:15;;;;;;;;;;;;;;;2.21;87.01;96565.13;3594003;39;20300;-52
2021/05/26 02:40:44;;;;;;;;;;;;;;;2.20;87.07;96565.28;3591140;39;19943;-53
2021/05/26 02:43:20;;;;;;;;;;;;;;;2.25;87.09;96565.53;3594173;39;20399;-53
2021/05/26 02:45:50;;;;;;;;;;;;;;;2.27;87.00;96561.75;3590817;39;20419;-54
2021/05/26 02:48:18;;;;;;;;;;;;;;;2.26;86.92;96559.34;3583957;39;19944;-53
2021/05/26 02:50:45;;;;;;;;;;;;;;;2.31;86.94;96562.19;3589283;39;20228;-53
2021/05/26 02:53:14;;;;;;;;;;;;;;;2.32;86.54;96569.00;3601980;39;19954;-54
2021/05/26 02:55:42;;;;;;;;;;;;;;;2.29;86.34;96578.00;3597222;39;19942;-54
2021/05/26 02:58:42;;;;;;;;;;;;;;;2.32;86.30;96576.81;3574117;39;21013;-54
2021/05/26 03:01:35;;;;;;;;;;;;;;;2.30;86.05;96578.78;3589033;39;19942;-53
2021/05/26 03:04:05;;;;;;;;;;;;;;;2.34;86.23;96577.44;3591042;39;19940;-54
2021/05/26 03:06:40;;;;;;;;;;;;;;;2.34;86.03;96582.63;3593274;39;20208;-53
2021/05/26 03:09:07;;;;;;;;;;;;;;;2.35;85.65;96586.84;3591885;39;19935;-53
2021/05/26 03:11:40;;;;;;;;;;;;;;;2.39;85.77;96598.53;3592842;39;20528;-53
2021/05/26 03:14:31;;;;;;;;;;;;;;;2.35;85.39;96596.44;3582323;39;19940;-54
2021/05/26 03:17:06;;;;;;;;;;;;;;;2.36;85.89;96601.50;3592329;39;20290;-53
2021/05/26 03:19:35;;;;;;;;;;;;;;;2.37;86.11;96599.69;3592329;39;19937;-52
2021/05/26 03:22:26;;;;;;;;;;;;;;;2.42;86.21;96599.94;3591572;39;19940;-54
2021/05/26 03:25:13;;;;;;;;;;;;;;;2.41;85.85;96601.72;3590122;39;19935;-53
2021/05/26 03:27:42;;;;;;;;;;;;;;;2.50;86.28;96601.63;3588693;39;20016;-53
2021/05/26 03:30:17;;;;;;;;;;;;;;;2.52;85.89;96607.44;3593844;39;19944;-54
2021/05/26 03:32:44;;;;;;;;;;;;;;;2.58;86.10;96607.50;3586795;39;19940;-53
2021/05/26 03:35:13;;;;;;;;;;;;;;;2.59;85.77;96606.47;3590202;39;19940;-55
2021/05/26 03:37:43;;;;;;;;;;;;;;;2.66;86.37;96609.16;3590938;39;19943;-54
2021/05/26 03:40:13;;;;;;;;;;;;;;;3.52;85.12;96620.34;3583413;39;19936;-53
2021/05/26 03:42:47;;;;;;;;;;;;;;;5.08;82.57;96610.78;3588038;39;19936;-53
2021/05/26 03:45:44;;;;;;;;;;;;;;;5.15;78.56;96620.47;3586592;39;20588;-55
2021/05/26 03:48:13;;;;;;;;;;;;;;;5.21;78.89;96610.00;3583871;39;19944;-53
2021/05/26 03:50:44;;;;;;;;;;;;;;;6.99;75.65;96621.78;3580163;39;19944;-54
2021/05/26 03:53:13;;;;;;;;;;;;;;;8.45;69.63;96622.19;3590220;39;19960;-54
2021/05/26 03:55:43;;;;;;;;;;;;;;;9.11;64.22;96619.56;3589794;39;19954;-53
2021/05/26 03:58:31;;;;;;;;;;;;;;;9.79;63.92;96627.06;3582101;39;19944;-53
2021/05/26 04:01:03;;;;;;;;;;;;;;;10.52;61.05;96623.97;3597364;39;20302;-53
2021/05/26 04:03:32;;;;;;;;;;;;;;;11.05;59.72;96617.44;3590117;39;19941;-53
2021/05/26 04:06:04;;;;;;;;;;;;;;;11.37;57.29;96616.03;3591945;39;19932;-53
2021/05/26 04:08:32;;;;;;;;;;;;;;;11.62;56.83;96607.66;3592199;39;19937;-53
2021/05/26 04:10:59;;;;;;;;;;;;;;;12.09;56.81;96616.16;3589544;39;19947;-54
2021/05/26 04:14:02;;;;;;;;;;;;;;;12.63;54.32;96623.31;3560008;40;19945;-53
2021/05/26 04:16:47;;;;;;;;;;;;;;;13.05;51.42;96625.22;3584889;39;20354;-54
2021/05/26 04:19:33;;;;;;;;;;;;;;;13.42;50.43;96626.31;3592114;39;19946;-54
2021/05/26 04:22:03;;;;;;;;;;;;;;;13.96;51.35;96629.75;3590986;39;19954;-53
2021/05/26 04:24:37;;;;;;;;;;;;;;;14.05;48.54;96630.84;3599736;39;19936;-54
2021/05/26 04:27:05;;;;;;;;;;;;;;;14.35;50.31;96633.84;3578717;39;20038;-54
2021/05/26 04:29:33;;;;;;;;;;;;;;;14.94;46.38;96635.28;3581751;39;19954;-54
2021/05/26 04:32:02;;;;;;;;;;;;;;;14.83;48.05;96631.03;3589435;39;20319;-54
2021/05/26 04:34:29;;;;;;;;;;;;;;;15.28;46.11;96633.91;3591210;39;19936;-54
2021/05/26 04:36:57;;;;;;;;;;;;;;;15.40;45.91;96631.00;3591908;39;19936;-54
2021/05/26 04:39:24;;;;;;;;;;;;;;;15.61;44.92;96624.56;3592332;39;19944;-54
2021/05/26 04:41:52;;;;;;;;;;;;;;;15.87;43.99;96627.16;3595083;39;19973;-54
2021/05/26 04:44:20;;;;;;;;;;;;;;;15.95;43.14;96625.81;3589710;39;20205;-54
2021/05/26 04:46:47;;;;;;;;;;;;;;;15.94;43.35;96637.50;3589308;39;20186;-54
2021/05/26 04:49:15;;;;;;;;;;;;;;;16.28;43.38;96634.16;3592238;39;19982;-54
2021/05/26 04:51:42;;;;;;;;;;;;;;;16.35;42.33;96639.19;3588717;39;19944;-54
2021/05/26 04:54:10;;;;;;;;;;;;;;;16.47;42.66;96630.88;3590298;39;21151;-54
2021/05/26 04:56:37;;;;;;;;;;;;;;;16.51;41.92;96629.22;3588052;39;19944;-54
2021/05/26 04:59:05;;;;;;;;;;;;;;;16.16;42.84;96623.84;3593167;39;19950;-54
2021/05/26 05:01:32;;;;;;;;;;;;;;;15.84;44.21;96619.69;3588338;39;20340;-54
2021/05/26 05:04:00;;;;;;;;;;;;;;;15.91;44.20;96614.91;3591108;39;19944;-54
2021/05/26 05:06:27;;;;;;;;;;;;;;;15.90;44.32;96613.31;3577007;39;20349;-54
2021/05/26 05:08:55;;;;;;;;;;;;;;;15.42;44.51;96618.22;3591332;39;19948;-55
2021/05/26 05:11:23;;;;;;;;;;;;;;;14.50;45.39;96620.63;3593626;39;19942;-55
2021/05/26 05:13:51;;;;;;;;;;;;;;;13.63;47.71;96621.94;3591630;39;19974;-53
2021/05/26 05:16:18;;;;;;;;;;;;;;;13.49;49.14;96612.84;3594303;39;19942;-53
2021/05/26 05:18:46;;;;;;;;;;;;;;;12.87;50.63;96623.78;3603319;39;19936;-53
2021/05/26 05:21:13;;;;;;;;;;;;;;;12.06;53.74;96621.94;3596373;39;20296;-53
2021/05/26 05:23:41;;;;;;;;;;;;;;;11.59;54.52;96613.44;3582080;39;20473;-53
2021/05/26 05:26:09;;;;;;;;;;;;;;;11.37;56.16;96603.66;3574058;39;19950;-53
2021/05/26 05:28:37;;;;;;;;;;;;;;;11.20;55.82;96606.28;3599848;39;19939;-54
2021/05/26 05:31:04;;;;;;;;;;;;;;;11.06;57.19;96608.47;3593962;39;20529;-53
2021/05/26 05:33:32;;;;;;;;;;;;;;;10.89;57.46;96602.41;3594429;39;19940;-53
2021/05/26 05:35:59;;;;;;;;;;;;;;;10.77;58.19;96600.63;3588076;39;21039;-53
2021/05/26 05:38:27;;;;;;;;;;;;;;;10.80;57.85;96602.00;3598851;39;20266;-53
2021/05/26 05:40:54;;;;;;;;;;;;;;;10.65;58.96;96591.22;3595885;39;19947;-52
2021/05/26 05:43:21;;;;;;;;;;;;;;;10.59;58.95;96598.25;3583799;39;19944;-54
2021/05/26 05:45:49;;;;;;;;;;;;;;;10.49;59.84;96593.59;3596916;39;19954;-53
2021/05/26 05:48:16;;;;;;;;;;;;;;;10.45;61.34;96593.25;3587347;39;19936;-54
2021/05/26 05:50:44;;;;;;;;;;;;;;;10.42;61.04;96591.09;3597355;39;20505;-54
2021/05/26 05:53:12;;;;;;;;;;;;;;;10.51;61.29;96578.31;3599714;39;19943;-53
2021/05/26 05:55:40;;;;;;;;;;;;;;;10.49;60.97;96582.25;3601616;39;19954;-53
2021/05/26 05:58:10;;;;;;;;;;;;;;;10.52;61.68;96581.78;3601865;39;19947;-53
2021/05/26 06:00:38;;;;;;;;;;;;;;;10.57;61.91;96582.66;3598506;39;20208;-53
2021/05/26 06:03:06;;;;;;;;;;;;;;;10.57;61.37;96576.56;3605307;39;19976;-53
2021/05/26 06:05:34;;;;;;;;;;;;;;;10.60;62.17;96573.47;3600227;39;19948;-53
2021/05/26 06:08:01;;;;;;;;;;;;;;;10.49;62.42;96567.22;3600418;39;19944;-53
2021/05/26 06:10:29;;;;;;;;;;;;;;;10.50;64.70;96562.75;3585033;39;20212;-53
2021/05/26 06:12:58;;;;;;;;;;;;;;;10.40;62.81;96564.16;3604694;39;19943;-54
2021/05/26 06:15:25;;;;;;;;;;;;;;;10.53;63.07;96564.88;3592811;39;20030;-53
2021/05/26 06:17:53;;;;;;;;;;;;;;;10.62;62.79;96560.84;3604382;39;19944;-54
2021/05/26 06:20:21;;;;;;;;;;;;;;;10.61;62.63;96553.94;3604472;39;19946;-54
2021/05/26 06:22:48;;;;;;;;;;;;;;;10.66;62.34;96555.88;3603146;39;19936;-54
2021/05/26 06:25:17;;;;;;;;;;;;;;;10.80;63.36;96545.78;3595082;39;19940;-54
2021/05/26 06:27:44;;;;;;;;;;;;;;;10.79;63.17;96545.00;3604725;39;19949;-52
2021/05/26 06:30:12;;;;;;;;;;;;;;;10.81;62.50;96544.75;3598822;39;19943;-53
2021/05/26 06:32:40;;;;;;;;;;;;;;;10.96;62.21;96542.34;3599935;39;19946;-53
2021/05/26 06:35:09;;;;;;;;;;;;;;;11.05;61.76;96540.09;3580168;39;19947;-53
2021/05/26 06:37:36;;;;;;;;;;;;;;;11.06;61.88;96541.69;3588263;39;19973;-53
2021/05/26 06:40:05;;;;;;;;;;;;;;;11.23;62.35;96539.00;3587329;39;19936;-53
2021/05/26 06:42:32;;;;;;;;;;;;;;;11.34;61.28;96543.38;3601049;39;19952;-52
2021/05/26 06:45:01;;;;;;;;;;;;;;;11.57;62.14;96541.53;3602548;39;19959;-52
2021/05/26 06:47:29;;;;;;;;;;;;;;;11.72;59.78;96546.19;3603297;39;19939;-55
2021/05/26 06:49:56;;;;;;;;;;;;;;;11.85;59.07;96535.25;3591738;39;19950;-53
2021/05/26 06:52:23;;;;;;;;;;;;;;;12.04;59.39;96536.78;3601226;39;20001;-55
2021/05/26 06:54:51;;;;;;;;;;;;;;;12.15;58.02;96543.75;3599563;39;19947;-55
2021/05/26 06:57:18;;;;;;;;;;;;;;;12.27;57.92;96539.09;3600567;39;19943;-55
2021/05/26 06:59:46;;;;;;;;;;;;;;;12.42;57.52;96538.47;3591968;39;20356;-55
2021/05/26 07:02:14;;;;;;;;;;;;;;;12.45;56.58;96542.44;3602844;39;19942;-55
2021/05/26 07:04:41;;;;;;;;;;;;;;;12.37;55.85;96530.47;3595920;39;19936;-55
2021/05/26 07:07:08;;;;;;;;;;;;;;;12.48;57.30;96539.31;3603089;39;19962;-53
2021/05/26 07:09:36;;;;;;;;;;;;;;;12.51;54.17;96536.13;3606483;39;19942;-53
2021/05/26 07:12:03;;;;;;;;;;;;;;;12.52;52.97;96529.78;3596024;39;19958;-54
2021/05/26 07:14:31;;;;;;;;;;;;;;;12.59;53.02;96527.75;3605413;39;19944;-54
2021/05/26 07:16:58;;;;;;;;;;;;;;;12.71;53.99;96530.19;3592648;39;19944;-54
2021/05/26 07:19:26;;;;;;;;;;;;;;;12.81;53.86;96524.19;3605526;39;20105;-55
2021/05/26 07:21:53;;;;;;;;;;;;;;;12.84;53.51;96523.69;3603706;39;19950;-53
2021/05/26 07:24:21;;;;;;;;;;;;;;;12.97;53.59;96513.69;3602658;39;19951;-54
2021/05/26 07:26:48;;;;;;;;;;;;;;;13.00;50.97;96510.53;3591379;39;20026;-54
2021/05/26 07:29:16;;;;;;;;;;;;;;;13.01;51.71;96512.13;3601903;39;20410;-54
2021/05/26 07:31:44;;;;;;;;;;;;;;;13.07;51.95;96516.41;3604240;39;19944;-55
2021/05/26 07:34:12;;;;;;;;;;;;;;;13.29;52.94;96510.16;3599927;39;19942;-56
2021/05/26 07:36:39;;;;;;;;;;;;;;;13.36;51.83;96502.75;3602246;39;19936;-56
2021/05/26 07:39:08;;;;;;;;;;;;;;;13.52;51.37;96501.78;3593121;39;19994;-54
2021/05/26 07:41:35;;;;;;;;;;;;;;;13.66;50.57;96488.06;3601011;39;20337;-54
2021/05/26 07:44:03;;;;;;;;;;;;;;;13.81;49.95;96492.59;3600673;39;19948;-54
2021/05/26 07:46:31;;;;;;;;;;;;;;;13.95;49.18;96499.00;3592063;39;19936;-54
2021/05/26 07:48:58;;;;;;;;;;;;;;;14.07;48.07;96497.94;3599458;39;19940;-54
2021/05/26 07:51:30;;;;;;;;;;;;;;;14.19;43.46;96492.41;3604432;39;19940;-54
2021/05/26 07:53:58;;;;;;;;;;;;;;;14.24;42.26;96490.53;3605291;39;19939;-54
2021/05/26 07:56:27;;;;;;;;;;;;;;;14.46;42.95;96484.94;3594378;39;19943;-54
2021/05/26 07:58:55;;;;;;;;;;;;;;;14.70;42.11;96486.28;3601356;39;20190;-54
2021/05/26 08:01:22;;;;;;;;;;;;;;;14.73;43.57;96489.19;3603236;39;19942;-55
2021/05/26 08:03:50;;;;;;;;;;;;;;;14.81;42.15;96481.78;3602333;39;19944;-55
2021/05/26 08:06:17;;;;;;;;;;;;;;;14.95;40.85;96468.72;3601373;39;19935;-54
2021/05/26 08:08:45;;;;;;;;;;;;;;;15.05;41.27;96476.66;3604915;39;19935;-55
2021/05/26 08:11:12;;;;;;;;;;;;;;;15.20;41.24;96467.84;3604879;39;19944;-55
2021/05/26 08:13:39;;;;;;;;;;;;;;;15.33;41.46;96472.56;3604853;39;19944;-54
2021/05/26 08:16:09;;;;;;;;;;;;;;;15.52;41.56;96462.09;3602125;39;19954;-54
2021/05/26 08:18:36;;;;;;;;;;;;;;;15.66;41.00;96459.66;3601495;39;19940;-54
2021/05/26 08:21:04;;;;;;;;;;;;;;;15.81;41.67;96457.97;3601940;39;20258;-54
2021/05/26 08:23:32;;;;;;;;;;;;;;;15.86;39.76;96465.16;3592214;39;19950;-54
2021/05/26 08:25:59;;;;;;;;;;;;;;;16.06;39.54;96462.34;3602509;39;19936;-54
2021/05/26 08:28:26;;;;;;;;;;;;;;;16.34;39.19;96464.53;3603893;39;19965;-55
2021/05/26 08:30:54;;;;;;;;;;;;;;;16.48;39.30;96462.81;3600361;39;19939;-55
2021/05/26 08:33:21;;;;;;;;;;;;;;;16.58;36.67;96456.63;3592915;39;20188;-54
2021/05/26 08:35:49;;;;;;;;;;;;;;;16.53;37.49;96460.13;3602771;39;20202;-54
2021/05/26 08:38:17;;;;;;;;;;;;;;;16.45;37.44;96453.53;3600567;39;19948;-54
2021/05/26 08:40:44;;;;;;;;;;;;;;;16.41;36.68;96457.81;3604610;39;19950;-54
2021/05/26 08:43:15;;;;;;;;;;;;;;;16.44;36.01;96457.25;3604441;39;19950;-55
2021/05/26 08:45:43;;;;;;;;;;;;;;;16.53;35.17;96454.00;3589363;39;19997;-54
2021/05/26 08:48:13;;;;;;;;;;;;;;;16.72;36.50;96446.91;3592046;39;19944;-53
2021/05/26 08:50:44;;;;;;;;;;;;;;;16.86;34.75;96444.34;3604345;39;19944;-53
2021/05/26 08:53:12;;;;;;;;;;;;;;;16.95;34.62;96441.06;3602673;39;20310;-54
2021/05/26 08:55:39;;;;;;;;;;;;;;;17.04;34.16;96437.50;3593453;39;19936;-54
2021/05/26 08:58:06;;;;;;;;;;;;;;;16.94;33.59;96431.47;3602266;39;19970;-53
2021/05/26 09:00:34;;;;;;;;;;;;;;;16.99;33.53;96434.09;3603968;39;19963;-55
2021/05/26 09:03:04;;;;;;;;;;;;;;;17.13;33.00;96429.69;3605351;39;20224;-53
2021/05/26 09:05:32;;;;;;;;;;;;;;;17.20;32.62;96427.44;3601626;39;19935;-53
2021/05/26 09:08:08;;;;;;;;;;;;;;;17.48;32.66;96424.97;3603235;39;19966;-53
2021/05/26 09:10:45;;;;;;;;;;;;;;;17.74;34.22;96429.97;3604861;39;19936;-53
2021/05/26 09:13:31;;;;;;;;;;;;;;;17.85;33.02;96430.59;3601131;39;19978;-54
2021/05/26 09:15:59;;;;;;;;;;;;;;;17.57;34.56;96424.31;3603011;39;19939;-54
2021/05/26 09:18:26;;;;;;;;;;;;;;;17.51;34.53;96424.41;3604467;39;19946;-54
2021/05/26 09:20:56;;;;;;;;;;;;;;;17.60;33.80;96416.53;3603436;39;19997;-53
2021/05/26 09:23:26;;;;;;;;;;;;;;;17.69;34.21;96414.00;3604219;39;19958;-53
2021/05/26 09:25:55;;;;;;;;;;;;;;;17.55;34.66;96411.28;3601787;39;19954;-53
2021/05/26 09:28:30;;;;;;;;;;;;;;;17.51;34.38;96407.59;3600301;39;20327;-53
2021/05/26 09:31:02;;;;;;;;;;;;;;;17.65;33.89;96407.69;3598767;39;19974;-54
2021/05/26 09:33:41;;;;;;;;;;;;;;;17.77;34.14;96404.56;3593809;39;19935;-53
2021/05/26 09:36:19;;;;;;;;;;;;;;;17.78;32.05;96400.81;3593560;39;20193;-53
2021/05/26 09:38:47;;;;;;;;;;;;;;;17.82;32.70;96399.16;3602085;39;19943;-54
2021/05/26 09:41:15;;;;;;;;;;;;;;;17.96;32.38;96396.53;3603513;39;19936;-54
2021/05/26 09:44:02;;;;;;;;;;;;;;;18.10;32.25;96389.41;3599171;39;19965;-53
2021/05/26 09:46:33;;;;;;;;;;;;;;;18.20;32.07;96387.63;3600736;39;19936;-53
2021/05/26 09:49:10;;;;;;;;;;;;;;;18.12;30.11;96373.88;3592895;39;19931;-53
2021/05/26 09:51:39;;;;;;;;;;;;;;;18.14;30.16;96368.25;3595056;39;19952;-53
2021/05/26 09:54:09;;;;;;;;;;;;;;;18.21;31.13;96365.19;3604112;39;19942;-54
2021/05/26 09:56:37;;;;;;;;;;;;;;;18.15;29.39;96361.81;3592875;39;19938;-52
2021/05/26 09:59:05;;;;;;;;;;;;;;;18.19;30.31;96360.16;3602794;39;19948;-54
2021/05/26 10:01:34;;;;;;;;;;;;;;;18.23;30.92;96353.13;3600173;39;20336;-54
2021/05/26 10:04:04;;;;;;;;;;;;;;;18.23;30.86;96347.00;3587940;39;19946;-54
2021/05/26 10:06:37;;;;;;;;;;;;;;;18.28;31.27;96342.34;3593196;39;19943;-54
2021/05/26 10:09:25;;;;;;;;;;;;;;;18.26;29.91;96336.53;3594525;39;19939;-54
2021/05/26 10:12:12;;;;;;;;;;;;;;;18.35;30.58;96339.31;3600227;39;20208;-54
2021/05/26 10:14:42;;;;;;;;;;;;;;;18.36;30.57;96342.75;3603397;39;19936;-53
2021/05/26 10:17:17;;;;;;;;;;;;;;;18.24;30.44;96348.59;3588369;39;19936;-54
2021/05/26 10:19:45;;;;;;;;;;;;;;;17.90;30.08;96345.13;3592428;39;20205;-54
2021/05/26 10:22:12;;;;;;;;;;;;;;;17.86;30.70;96337.97;3590876;39;19944;-55
2021/05/26 10:24:43;;;;;;;;;;;;;;;17.72;30.11;96335.28;3601037;39;19935;-53
2021/05/26 10:27:11;;;;;;;;;;;;;;;17.81;30.36;96328.19;3582537;39;20258;-53
2021/05/26 10:29:39;;;;;;;;;;;;;;;18.00;31.18;96330.03;3599947;39;19936;-54
2021/05/26 10:32:08;;;;;;;;;;;;;;;17.90;32.27;96328.31;3604813;39;19965;-54
2021/05/26 10:34:42;;;;;;;;;;;;;;;18.01;30.72;96334.28;3604850;39;19947;-55
2021/05/26 10:37:10;;;;;;;;;;;;;;;17.95;30.50;96325.56;3601992;39;19948;-53
2021/05/26 10:39:38;;;;;;;;;;;;;;;18.13;31.69;96322.06;3596003;39;19944;-54
2021/05/26 10:42:05;;;;;;;;;;;;;;;18.23;30.11;96320.31;3584998;39;19931;-53
2021/05/26 10:44:52;;;;;;;;;;;;;;;17.87;30.76;96315.56;3595873;39;20019;-53
2021/05/26 10:47:38;;;;;;;;;;;;;;;17.50;31.15;96313.47;3593442;39;19944;-54
2021/05/26 10:50:26;;;;;;;;;;;;;;;17.51;31.44;96307.03;3592277;39;19942;-54
2021/05/26 10:52:57;;;;;;;;;;;;;;;17.64;32.33;96294.06;3596394;39;19936;-54
2021/05/26 10:55:36;;;;;;;;;;;;;;;17.64;32.79;96289.50;3601872;39;19944;-55
2021/05/26 10:58:16;;;;;;;;;;;;;;;17.85;32.29;96283.03;3594183;39;19966;-53
2021/05/26 11:00:50;;;;;;;;;;;;;;;17.86;32.39;96289.94;3595070;39;20120;-53
2021/05/26 11:03:27;;;;;;;;;;;;;;;17.71;33.15;96283.78;3600357;39;19950;-53
2021/05/26 11:06:04;;;;;;;;;;;;;;;17.56;33.04;96286.69;3596340;39;20450;-54
2021/05/26 11:08:36;;;;;;;;;;;;;;;17.44;32.97;96295.94;3597376;39;19948;-53
2021/05/26 11:11:26;;;;;;;;;;;;;;;17.30;32.28;96290.56;3591006;39;19932;-54
2021/05/26 11:14:02;;;;;;;;;;;;;;;17.34;33.07;96293.44;3589112;39;19958;-53
2021/05/26 11:16:37;;;;;;;;;;;;;;;17.32;32.99;96287.59;3592948;39;19961;-53
2021/05/26 11:19:14;;;;;;;;;;;;;;;17.36;32.32;96286.72;3593317;39;19993;-54
2021/05/26 11:21:58;;;;;;;;;;;;;;;17.45;33.10;96284.19;3602866;39;19950;-54
2021/05/26 11:24:26;;;;;;;;;;;;;;;17.42;32.20;96276.00;3604475;39;19936;-53
2021/05/26 11:26:54;;;;;;;;;;;;;;;17.47;33.35;96274.03;3601777;39;19944;-53
2021/05/26 11:29:38;;;;;;;;;;;;;;;17.63;32.95;96277.25;3600026;39;19942;-54
2021/05/26 11:32:13;;;;;;;;;;;;;;;17.70;32.47;96276.88;3602307;39;19954;-56
2021/05/26 11:34:42;;;;;;;;;;;;;;;17.63;32.68;96277.25;3591845;39;21645;-53
2021/05/26 11:37:10;;;;;;;;;;;;;;;17.67;31.59;96274.78;3591739;39;19990;-53
2021/05/26 11:39:38;;;;;;;;;;;;;;;17.67;32.32;96261.44;3601799;39;20281;-54
2021/05/26 11:42:13;;;;;;;;;;;;;;;17.65;32.12;96259.06;3600583;39;20022;-54
2021/05/26 11:44:41;;;;;;;;;;;;;;;17.79;31.98;96258.31;3601827;39;19950;-55
2021/05/26 11:47:09;;;;;;;;;;;;;;;17.97;32.96;96252.13;3592345;39;20098;-55
2021/05/26 11:49:40;;;;;;;;;;;;;;;18.17;31.59;96249.38;3583901;39;20352;-53
2021/05/26 11:52:10;;;;;;;;;;;;;;;18.48;32.10;96254.13;3591435;39;19944;-53
2021/05/26 11:55:01;;;;;;;;;;;;;;;18.76;30.33;96252.22;3603836;39;20223;-53
2021/05/26 11:57:36;;;;;;;;;;;;;;;18.86;31.10;96245.88;3600337;39;19946;-55
2021/05/26 12:00:04;;;;;;;;;;;;;;;18.94;31.59;96245.16;3583675;39;19950;-55
2021/05/26 12:02:55;;;;;;;;;;;;;;;19.12;31.19;96237.31;3591943;39;19959;-55
2021/05/26 12:05:41;;;;;;;;;;;;;;;19.16;31.78;96224.88;3589550;39;19948;-54
2021/05/26 12:08:29;;;;;;;;;;;;;;;19.18;32.29;96234.22;3600229;39;20215;-55
2021/05/26 12:11:00;;;;;;;;;;;;;;;19.21;32.08;96230.13;3600427;39;19950;-56
2021/05/26 12:13:31;;;;;;;;;;;;;;;19.19;32.34;96229.63;3588245;39;20202;-55
2021/05/26 12:16:01;;;;;;;;;;;;;;;19.05;32.72;96227.03;3596802;39;19950;-55
2021/05/26 12:18:29;;;;;;;;;;;;;;;18.93;32.65;96224.84;3594490;39;20208;-55
2021/05/26 12:20:57;;;;;;;;;;;;;;;18.81;32.54;96227.25;3604585;39;19936;-54
2021/05/26 12:23:31;;;;;;;;;;;;;;;18.75;32.14;96230.06;3576171;39;19940;-53
2021/05/26 12:25:59;;;;;;;;;;;;;;;18.77;32.28;96226.28;3603738;39;20432;-54
2021/05/26 12:28:28;;;;;;;;;;;;;;;18.72;31.25;96219.16;3604272;39;19949;-54
2021/05/26 12:30:57;;;;;;;;;;;;;;;18.82;32.27;96218.94;3595152;39;19936;-54
2021/05/26 12:33:26;;;;;;;;;;;;;;;18.97;32.57;96212.50;3603526;39;19954;-54
2021/05/26 12:36:04;;;;;;;;;;;;;;;18.96;31.78;96210.09;3595060;39;19950;-53
2021/05/26 12:38:36;;;;;;;;;;;;;;;18.89;30.81;96202.50;3600841;39;19939;-53
2021/05/26 12:41:22;;;;;;;;;;;;;;;19.03;32.28;96200.56;3601615;39;20332;-53
2021/05/26 12:43:50;;;;;;;;;;;;;;;19.47;31.84;96200.09;3593175;39;19946;-53
2021/05/26 12:46:36;;;;;;;;;;;;;;;19.59;30.99;96199.50;3602582;39;19965;-55
2021/05/26 12:49:27;;;;;;;;;;;;;;;19.80;31.10;96194.41;3605179;39;19942;-53
2021/05/26 12:51:55;;;;;;;;;;;;;;;19.58;29.37;96190.69;3601725;39;19944;-53
2021/05/26 12:54:23;;;;;;;;;;;;;;;19.66;30.27;96192.63;3602029;39;19942;-53
2021/05/26 12:57:07;;;;;;;;;;;;;;;19.91;31.74;96187.72;3584309;39;19962;-53
2021/05/26 12:59:35;;;;;;;;;;;;;;;20.22;29.86;96186.09;3599322;39;19944;-53
2021/05/26 13:02:06;;;;;;;;;;;;;;;20.48;30.23;96188.03;3592894;39;20269;-54
2021/05/26 13:04:46;;;;;;;;;;;;;;;20.69;28.42;96182.88;3605078;39;19950;-53
2021/05/26 13:07:25;;;;;;;;;;;;;;;20.85;28.64;96185.88;3604566;39;19943;-53
2021/05/26 13:09:53;;;;;;;;;;;;;;;20.84;27.51;96179.75;3601786;39;19942;-55
2021/05/26 13:12:30;;;;;;;;;;;;;;;20.92;29.53;96180.06;3589084;39;19948;-54